Time;durP1;ratioP1;P1;durP2;ratioP2;P2;SDS_P1;SDS_P2;PMS_P1;PMS_P2;Temp;Humidity;BMP_temperature;BMP_pressure;BME280_temperature;BME280_humidity;BME280_pressure;Samples;Min_cycle;Max_cycle;Signal;HPM_P1;HPM_P2
2021/08/04 00:00:16;;;;;;;6.03;3.40;;;13.50;99.90;;;;;;6251203;22;20027;-86
2021/08/04 00:03:06;;;;;;;3.75;2.80;;;13.50;99.90;;;;;;6273050;22;20184;-87
2021/08/04 00:05:58;;;;;;;5.70;3.13;;;13.50;99.90;;;;;;6273931;22;20406;-88
2021/08/04 00:08:48;;;;;;;4.20;3.00;;;13.60;99.90;;;;;;6273782;22;20079;-86
2021/08/04 00:11:38;;;;;;;4.43;2.70;;;13.60;99.90;;;;;;6272460;22;20409;-86
2021/08/04 00:14:28;;;;;;;7.93;2.97;;;13.60;99.90;;;;;;6251459;22;20058;-87
2021/08/04 00:17:16;;;;;;;4.32;3.00;;;13.60;99.90;;;;;;6251672;22;20075;-87
2021/08/04 00:20:16;;;;;;;6.30;3.25;;;13.60;99.90;;;;;;6252724;22;20105;-88
2021/08/04 00:23:17;;;;;;;8.65;3.40;;;13.60;99.90;;;;;;6160395;23;20346;-88
2021/08/04 00:26:11;;;;;;;4.57;3.03;;;13.60;99.90;;;;;;6163063;23;20433;-87
2021/08/04 00:28:58;;;;;;;4.47;2.78;;;13.60;99.90;;;;;;6179900;23;20037;-86
2021/08/04 00:31:48;;;;;;;8.38;2.90;;;13.60;99.90;;;;;;6160380;23;20385;-88
2021/08/04 00:34:36;;;;;;;5.53;2.72;;;13.60;99.90;;;;;;6180196;23;20060;-87
2021/08/04 00:37:23;;;;;;;3.50;2.60;;;13.60;99.90;;;;;;6158106;23;20121;-87
2021/08/04 00:40:14;;;;;;;4.55;2.75;;;13.60;99.90;;;;;;6179932;23;20036;-86
2021/08/04 00:43:01;;;;;;;3.25;2.53;;;13.60;99.90;;;;;;6158627;23;20033;-87
2021/08/04 00:45:49;;;;;;;3.90;2.88;;;13.60;99.90;;;;;;6180101;23;20156;-87
2021/08/04 00:48:36;;;;;;;4.43;2.80;;;13.60;99.90;;;;;;6159719;23;20411;-88
2021/08/04 00:51:23;;;;;;;6.95;2.83;;;13.60;99.90;;;;;;6159380;23;20028;-86
2021/08/04 00:54:11;;;;;;;8.60;2.83;;;13.60;99.90;;;;;;6244036;22;20133;-87
2021/08/04 00:56:58;;;;;;;2.60;2.35;;;13.60;99.90;;;;;;6272496;22;20024;-88
2021/08/04 00:59:48;;;;;;;5.72;3.00;;;13.60;99.90;;;;;;6230638;22;20019;-86
2021/08/04 01:02:50;;;;;;;5.38;2.70;;;13.60;99.90;;;;;;6271680;22;20095;-87
2021/08/04 01:05:46;;;;;;;5.00;3.22;;;13.60;99.90;;;;;;6271208;22;20027;-88
2021/08/04 01:08:40;;;;;;;3.15;2.85;;;13.50;99.90;;;;;;6274289;22;20019;-88
2021/08/04 01:11:33;;;;;;;6.45;2.85;;;13.50;99.90;;;;;;6249924;22;20077;-87
2021/08/04 01:14:25;;;;;;;4.78;2.75;;;13.40;99.90;;;;;;6252120;22;20082;-88
2021/08/04 01:17:17;;;;;;;10.25;3.47;;;13.40;99.90;;;;;;6250170;22;20020;-89
2021/08/04 01:20:20;;;;;;;4.15;2.60;;;13.30;99.90;;;;;;6253157;22;20034;-88
2021/08/04 01:23:53;;;;;;;6.18;2.60;;;13.30;99.90;;;;;;6273113;22;20105;-87
2021/08/04 01:26:47;;;;;;;5.25;2.75;;;13.20;99.90;;;;;;6272926;22;20032;-88
2021/08/04 01:29:37;;;;;;;5.72;3.03;;;13.20;99.90;;;;;;6251398;22;20122;-87
2021/08/04 01:32:27;;;;;;;3.65;2.50;;;13.20;99.90;;;;;;6229400;22;20031;-85
2021/08/04 01:35:18;;;;;;;5.28;2.67;;;13.20;99.90;;;;;;6278117;22;20083;-87
2021/08/04 01:38:12;;;;;;;6.07;2.70;;;13.20;99.90;;;;;;6283392;22;20023;-87
2021/08/04 01:41:01;;;;;;;15.90;4.05;;;13.20;99.90;;;;;;6283625;22;20091;-87
2021/08/04 01:43:50;;;;;;;5.72;2.80;;;13.20;99.90;;;;;;6277877;22;20028;-88
2021/08/04 01:46:38;;;;;;;5.47;2.97;;;13.20;99.90;;;;;;6285038;22;20081;-87
2021/08/04 01:49:27;;;;;;;4.93;2.80;;;13.20;99.90;;;;;;6286426;22;20085;-87
2021/08/04 01:52:15;;;;;;;3.90;2.70;;;13.20;99.90;;;;;;6288225;22;20023;-86
2021/08/04 01:55:04;;;;;;;3.00;2.60;;;13.20;99.90;;;;;;6263744;22;20027;-87
2021/08/04 01:57:51;;;;;;;4.25;3.00;;;13.20;99.90;;;;;;6277012;22;20023;-86
2021/08/04 02:00:38;;;;;;;5.53;2.85;;;13.20;99.90;;;;;;6232616;22;20428;-87
2021/08/04 02:03:28;;;;;;;3.60;2.75;;;13.20;99.90;;;;;;6274489;22;20034;-84
2021/08/04 02:06:21;;;;;;;5.60;2.85;;;13.20;99.90;;;;;;6251791;22;20114;-86
2021/08/04 02:09:22;;;;;;;4.93;2.75;;;13.30;99.90;;;;;;6271090;22;20028;-85
2021/08/04 02:12:11;;;;;;;5.22;2.47;;;13.20;99.90;;;;;;6252147;22;20438;-86
2021/08/04 02:15:06;;;;;;;4.68;3.20;;;13.20;99.90;;;;;;6271052;22;20023;-85
2021/08/04 02:18:01;;;;;;;5.13;2.83;;;13.20;99.90;;;;;;6272035;22;20141;-85
2021/08/04 02:20:53;;;;;;;7.63;2.63;;;13.20;99.90;;;;;;6251993;22;20024;-86
2021/08/04 02:23:45;;;;;;;8.82;2.92;;;13.20;99.90;;;;;;6252510;22;20023;-86
2021/08/04 02:26:34;;;;;;;3.40;2.58;;;13.20;99.90;;;;;;6252128;22;20023;-86
2021/08/04 02:29:23;;;;;;;7.35;3.38;;;13.20;99.90;;;;;;6272777;22;20034;-86
2021/08/04 02:32:13;;;;;;;4.03;2.42;;;13.20;99.90;;;;;;6254712;22;20027;-86
2021/08/04 02:35:01;;;;;;;6.85;3.15;;;13.20;99.90;;;;;;6231652;22;20027;-84
2021/08/04 02:37:49;;;;;;;6.53;3.00;;;13.20;99.90;;;;;;6273849;22;20051;-85
2021/08/04 02:40:38;;;;;;;8.13;3.03;;;13.20;99.90;;;;;;6274042;22;20031;-84
2021/08/04 02:43:29;;;;;;;3.75;2.35;;;13.20;99.90;;;;;;6252328;22;20032;-84
2021/08/04 02:46:16;;;;;;;6.30;3.00;;;13.20;99.90;;;;;;6273429;22;20034;-85
2021/08/04 02:49:06;;;;;;;4.07;2.88;;;13.20;99.90;;;;;;6273903;22;20031;-86
2021/08/04 02:51:55;;;;;;;3.28;2.72;;;13.10;99.90;;;;;;6252603;22;20418;-86
2021/08/04 02:54:46;;;;;;;5.88;2.63;;;13.10;99.90;;;;;;6233965;22;20473;-86
2021/08/04 02:57:36;;;;;;;6.30;3.28;;;13.10;99.90;;;;;;6272301;22;20107;-86
2021/08/04 03:00:24;;;;;;;5.85;3.83;;;13.10;99.90;;;;;;6253187;22;20126;-87
2021/08/04 03:03:13;;;;;;;3.63;2.92;;;13.00;99.90;;;;;;6252890;22;20311;-85
2021/08/04 03:06:04;;;;;;;6.97;3.40;;;13.00;99.90;;;;;;6271967;22;20435;-85
2021/08/04 03:08:52;;;;;;;5.05;2.97;;;13.00;99.90;;;;;;6272453;22;20028;-85
2021/08/04 03:11:40;;;;;;;4.45;2.50;;;13.00;99.90;;;;;;6250553;22;20027;-85
2021/08/04 03:14:30;;;;;;;3.05;2.75;;;13.00;99.90;;;;;;6251500;22;20020;-85
2021/08/04 03:17:17;;;;;;;5.80;3.00;;;13.00;99.90;;;;;;6273891;22;20020;-85
2021/08/04 03:20:05;;;;;;;3.88;3.00;;;13.00;99.90;;;;;;6232626;22;20281;-84
2021/08/04 03:22:56;;;;;;;4.95;3.15;;;12.90;99.90;;;;;;6273528;22;20279;-85
2021/08/04 03:25:47;;;;;;;4.35;3.33;;;12.90;99.90;;;;;;6232173;22;20090;-84
2021/08/04 03:28:36;;;;;;;4.82;3.40;;;12.90;99.90;;;;;;6274267;22;20039;-85
2021/08/04 03:31:23;;;;;;;3.90;3.10;;;12.90;99.90;;;;;;6251034;22;20164;-85
2021/08/04 03:34:11;;;;;;;3.75;2.97;;;12.90;99.90;;;;;;6251680;22;20027;-84
2021/08/04 03:36:58;;;;;;;4.63;3.50;;;12.90;99.90;;;;;;6273647;22;20099;-85
2021/08/04 03:39:45;;;;;;;5.82;3.20;;;12.90;99.90;;;;;;6253508;22;20034;-85
2021/08/04 03:42:33;;;;;;;5.75;3.33;;;12.80;99.90;;;;;;6251590;22;20038;-85
2021/08/04 03:45:20;;;;;;;3.75;3.10;;;12.80;99.90;;;;;;6252865;22;20023;-86
2021/08/04 03:48:10;;;;;;;4.05;3.08;;;12.80;99.90;;;;;;6253291;22;20089;-85
2021/08/04 03:50:57;;;;;;;4.63;3.42;;;12.80;99.90;;;;;;6271756;22;20027;-86
2021/08/04 03:53:44;;;;;;;5.80;3.67;;;12.80;99.90;;;;;;6232316;22;20035;-85
2021/08/04 03:56:32;;;;;;;5.47;3.50;;;12.80;99.90;;;;;;6252514;22;20435;-85
2021/08/04 03:59:23;;;;;;;4.95;3.28;;;12.70;99.90;;;;;;6251793;22;20020;-85
2021/08/04 04:06:35;;;;;;;7.22;3.80;;;12.70;99.90;;;;;;6253210;22;20022;-85
2021/08/04 04:09:25;;;;;;;5.13;3.67;;;12.70;99.90;;;;;;6232837;22;20038;-85
2021/08/04 04:12:12;;;;;;;4.63;3.35;;;12.70;99.90;;;;;;6253017;22;20020;-85
2021/08/04 04:15:10;;;;;;;7.00;3.53;;;12.70;99.90;;;;;;6250672;22;20126;-85
2021/08/04 04:17:58;;;;;;;5.47;3.35;;;12.70;99.90;;;;;;6231812;22;20027;-87
2021/08/04 04:20:47;;;;;;;4.53;3.28;;;12.70;99.90;;;;;;6272874;22;20438;-86
2021/08/04 04:24:08;;;;;;;4.88;3.47;;;12.60;99.90;;;;;;6250526;22;20039;-84
2021/08/04 04:35:14;;;;;;;7.53;3.40;;;12.60;99.90;;;;;;6273712;22;20273;-83
2021/08/04 05:00:10;;;;;;;8.98;3.97;;;13.00;99.90;;;;;;6271705;22;20007;-82
2021/08/04 05:07:43;;;;;;;8.38;3.83;;;13.00;99.90;;;;;;6271416;22;20003;-82
2021/08/04 05:10:40;;;;;;;7.80;3.05;;;13.00;99.90;;;;;;6250515;22;20094;-82
2021/08/04 05:18:55;;;;;;;9.77;3.45;;;13.20;99.90;;;;;;6090668;23;20022;-87
2021/08/04 05:22:10;;;;;;;5.20;3.67;;;13.40;99.90;;;;;;6063582;23;20171;-88
2021/08/04 05:32:40;;;;;;;4.80;2.97;;;13.60;99.90;;;;;;6160238;23;20260;-90
2021/08/04 05:43:59;;;;;;;6.95;3.30;;;13.80;99.90;;;;;;6252673;22;20076;-87
2021/08/04 05:47:22;;;;;;;4.45;2.92;;;13.80;99.90;;;;;;6273370;22;20035;-88
2021/08/04 05:50:33;;;;;;;4.25;3.30;;;13.90;99.90;;;;;;6274364;22;20027;-88
2021/08/04 05:57:38;;;;;;;6.45;2.80;;;14.00;99.90;;;;;;6227375;22;20043;-86
2021/08/04 06:00:26;;;;;;;5.68;2.70;;;14.20;99.90;;;;;;6275931;22;20031;-86
2021/08/04 06:03:15;;;;;;;7.13;3.47;;;14.20;99.90;;;;;;6272053;22;20023;-85
2021/08/04 06:06:03;;;;;;;4.10;3.20;;;14.40;99.90;;;;;;6274300;22;20127;-89
2021/08/04 06:08:50;;;;;;;4.88;3.00;;;14.40;99.90;;;;;;6271108;22;20027;-89
2021/08/04 06:11:40;;;;;;;3.83;2.58;;;14.50;99.90;;;;;;6252540;22;20031;-88
2021/08/04 06:14:27;;;;;;;5.22;2.70;;;14.50;99.90;;;;;;6272918;22;20026;-88
2021/08/04 06:17:15;;;;;;;4.53;2.80;;;14.70;99.90;;;;;;6272513;22;20035;-87
2021/08/04 06:20:04;;;;;;;3.30;2.30;;;14.80;99.90;;;;;;6250994;22;20087;-88
2021/08/04 06:22:55;;;;;;;4.88;2.33;;;14.90;99.90;;;;;;6273253;22;20387;-87
2021/08/04 06:25:43;;;;;;;7.85;2.47;;;15.10;99.90;;;;;;6272573;22;20315;-88
2021/08/04 06:28:30;;;;;;;2.53;2.33;;;15.20;99.90;;;;;;6273726;22;20051;-87
2021/08/04 06:31:43;;;;;;;2.55;2.35;;;15.50;99.90;;;;;;6274200;22;20027;-90
2021/08/04 06:34:39;;;;;;;4.70;2.03;;;15.90;99.90;;;;;;6252401;22;20322;-91
2021/08/04 06:37:35;;;;;;;3.38;2.05;;;16.10;99.90;;;;;;6238027;22;20027;-89
2021/08/04 06:40:23;;;;;;;3.33;2.60;;;16.20;99.90;;;;;;6271112;22;20110;-87
2021/08/04 06:43:38;;;;;;;4.70;2.03;;;16.40;99.90;;;;;;6274109;22;20393;-90
2021/08/04 06:46:37;;;;;;;3.60;2.08;;;16.50;99.90;;;;;;6258615;22;20039;-90
2021/08/04 06:49:25;;;;;;;4.57;2.45;;;16.90;99.90;;;;;;6273155;22;20027;-90
2021/08/04 06:52:15;;;;;;;3.95;2.10;;;16.90;99.90;;;;;;6251120;22;20099;-87
2021/08/04 06:55:03;;;;;;;2.95;2.20;;;16.80;99.90;;;;;;6250764;22;20027;-88
2021/08/04 06:58:03;;;;;;;;;;;;;;;;;;;;;
2021/08/04 07:00:56;;;;;;;2.60;1.90;;;16.70;99.90;;;;;;6273342;22;20467;-90
2021/08/04 07:03:54;;;;;;;2.10;1.90;;;17.20;99.90;;;;;;6272530;22;20019;-91
2021/08/04 07:07:07;;;;;;;2.58;1.80;;;17.70;99.90;;;;;;6150529;23;20400;-89
2021/08/04 07:10:00;;;;;;;3.20;1.83;;;17.80;99.90;;;;;;6150481;23;20076;-91
2021/08/04 07:13:10;;;;;;;2.97;2.30;;;18.00;99.90;;;;;;6133174;23;20025;-91
2021/08/04 07:16:11;;;;;;;1.88;1.63;;;18.70;99.90;;;;;;6133438;23;20511;-89
2021/08/04 07:19:29;;;;;;;2.38;2.00;;;18.80;99.90;;;;;;6152688;23;20076;-90
2021/08/04 07:22:16;;;;;;;4.93;1.92;;;18.40;99.90;;;;;;6151738;23;20232;-89
2021/08/04 07:25:11;;;;;;;2.55;1.90;;;18.00;99.90;;;;;;6235617;22;20089;-89
2021/08/04 07:28:02;;;;;;;3.90;1.98;;;18.00;99.90;;;;;;6272677;22;20027;-89
2021/08/04 07:30:50;;;;;;;3.55;1.80;;;18.10;99.90;;;;;;6251631;22;20027;-90
2021/08/04 07:33:39;;;;;;;2.25;1.80;;;18.00;99.90;;;;;;6273721;22;20023;-91
2021/08/04 07:36:29;;;;;;;4.05;1.83;;;17.90;99.90;;;;;;6273639;22;20024;-90
2021/08/04 07:39:17;;;;;;;4.38;1.55;;;17.80;99.90;;;;;;6250339;22;20091;-90
2021/08/04 07:42:04;;;;;;;4.38;2.03;;;17.80;99.90;;;;;;6252171;22;20039;-92
2021/08/04 07:44:58;;;;;;;4.85;1.70;;;18.00;99.90;;;;;;6276408;22;20222;-91
2021/08/04 07:47:46;;;;;;;4.20;2.13;;;18.30;99.90;;;;;;6273465;22;20031;-91
2021/08/04 07:50:36;;;;;;;2.63;1.90;;;17.90;99.90;;;;;;6274852;22;20024;-92
2021/08/04 07:53:23;;;;;;;2.17;1.98;;;17.80;99.90;;;;;;6275650;22;20023;-92
2021/08/04 07:56:11;;;;;;;1.90;1.70;;;18.00;99.90;;;;;;6276226;22;20130;-91
2021/08/04 07:59:02;;;;;;;2.30;1.83;;;18.10;99.90;;;;;;6282678;22;20092;-91
2021/08/04 08:01:52;;;;;;;1.83;1.60;;;18.60;99.90;;;;;;6251675;22;20031;-89
2021/08/04 08:04:43;;;;;;;1.77;1.60;;;19.10;99.90;;;;;;6253393;22;20086;-86
2021/08/04 08:07:34;;;;;;;3.22;2.00;;;19.70;99.30;;;;;;6273183;22;20020;-90
2021/08/04 08:10:32;;;;;;;;;;;;;;;;;;;;;
2021/08/04 08:13:20;;;;;;;1.90;1.52;;;20.80;93.70;;;;;;6272969;22;20038;-92
2021/08/04 08:16:10;;;;;;;1.45;1.35;;;21.10;92.10;;;;;;6252158;22;20134;-95
2021/08/04 08:18:58;;;;;;;6.93;1.30;;;21.10;91.60;;;;;;6273165;22;20019;-90
2021/08/04 08:21:46;;;;;;;2.50;1.70;;;20.60;91.40;;;;;;6250901;22;20032;-90
2021/08/04 08:24:34;;;;;;;2.38;1.60;;;20.20;92.50;;;;;;6275122;22;20335;-89
2021/08/04 08:27:22;;;;;;;3.25;1.60;;;19.90;92.60;;;;;;6274013;22;20023;-90
2021/08/04 08:30:10;;;;;;;2.85;1.52;;;19.90;92.40;;;;;;6274903;22;20027;-92
2021/08/04 08:32:58;;;;;;;2.25;1.80;;;19.70;94.70;;;;;;6273592;22;20027;-90
2021/08/04 08:35:46;;;;;;;2.35;1.40;;;19.70;96.70;;;;;;6273745;22;20077;-90
2021/08/04 08:38:34;;;;;;;2.40;1.23;;;19.80;94.70;;;;;;6273084;22;20108;-89
2021/08/04 08:41:21;;;;;;;4.25;1.40;;;19.80;93.60;;;;;;6199856;23;20154;-89
2021/08/04 08:44:12;;;;;;;1.88;1.63;;;19.50;95.40;;;;;;6244183;23;20024;-89
2021/08/04 08:47:06;;;;;;;2.45;1.30;;;19.10;96.60;;;;;;6202270;23;20403;-88
2021/08/04 08:50:05;;;;;;;1.83;1.50;;;19.40;98.70;;;;;;6223447;23;20051;-90
2021/08/04 08:53:21;;;;;;;2.60;1.35;;;20.20;97.30;;;;;;6222003;23;20415;-91
2021/08/04 08:56:14;;;;;;;2.13;1.20;;;21.70;94.40;;;;;;6242839;23;20538;-89
2021/08/04 08:59:03;;;;;;;4.18;1.40;;;22.80;87.30;;;;;;6243771;23;20099;-87
2021/08/04 09:02:10;;;;;;;1.23;1.13;;;23.60;84.70;;;;;;6245012;23;20380;-92
2021/08/04 09:05:08;;;;;;;2.03;1.27;;;24.20;82.20;;;;;;6200876;23;20106;-91
2021/08/04 09:08:03;;;;;;;2.78;1.13;;;24.60;77.60;;;;;;6242198;23;20027;-90
2021/08/04 09:10:56;;;;;;;2.03;1.30;;;23.90;75.40;;;;;;6222609;23;20074;-89
2021/08/04 09:13:46;;;;;;;2.35;1.10;;;24.00;74.80;;;;;;6221805;23;20079;-87
2021/08/04 09:17:04;;;;;;;2.22;1.40;;;23.10;74.80;;;;;;6243469;23;20741;-89
2021/08/04 09:19:52;;;;;;;3.42;1.40;;;22.40;79.50;;;;;;6223445;23;20023;-90
2021/08/04 09:22:40;;;;;;;1.20;1.10;;;22.00;79.90;;;;;;6223023;23;20024;-89
2021/08/04 09:25:31;;;;;;;1.38;1.27;;;21.20;84.30;;;;;;6201414;23;20039;-88
2021/08/04 09:28:18;;;;;;;3.80;1.65;;;20.70;86.80;;;;;;6222838;23;20032;-88
2021/08/04 09:31:06;;;;;;;2.65;1.65;;;20.20;90.00;;;;;;6244302;23;20024;-88
2021/08/04 09:33:54;;;;;;;2.45;1.33;;;19.90;91.70;;;;;;6242938;23;20035;-88
2021/08/04 09:36:41;;;;;;;1.40;1.30;;;19.90;92.10;;;;;;6244119;23;20125;-87
2021/08/04 09:39:32;;;;;;;1.60;1.50;;;19.60;92.00;;;;;;6254634;22;20024;-87
2021/08/04 09:42:20;;;;;;;1.85;1.60;;;19.40;93.50;;;;;;6245214;23;20028;-89
2021/08/04 09:45:12;;;;;;;1.65;1.45;;;19.40;92.80;;;;;;6252211;23;20028;-91
2021/08/04 09:48:02;;;;;;;1.55;1.33;;;19.20;93.40;;;;;;6237037;23;20280;-88
2021/08/04 09:50:57;;;;;;;1.50;1.40;;;19.20;95.90;;;;;;6254377;23;20028;-87
2021/08/04 09:53:49;;;;;;;3.13;1.48;;;19.30;94.50;;;;;;6256794;23;20024;-89
2021/08/04 09:56:52;;;;;;;;;;;19.40;95.80;;;;;;6248520;23;20027;-88
2021/08/04 09:59:41;;;;;;;1.85;1.67;;;19.60;95.30;;;;;;6242234;23;20287;-88
2021/08/04 10:02:31;;;;;;;1.67;1.40;;;20.10;96.50;;;;;;6222268;23;20059;-88
2021/08/04 10:05:24;;;;;;;1.95;1.40;;;20.30;97.30;;;;;;6250792;23;20028;-89
2021/08/04 10:08:12;;;;;;;1.95;1.33;;;20.80;94.90;;;;;;6250355;23;20043;-91
2021/08/04 10:10:59;;;;;;;1.98;1.52;;;21.30;93.40;;;;;;6246800;23;20078;-90
2021/08/04 10:13:47;;;;;;;1.55;1.33;;;21.40;92.50;;;;;;6241884;23;20080;-91
2021/08/04 10:16:36;;;;;;;1.75;1.50;;;21.50;92.80;;;;;;6245624;23;20446;-88
2021/08/04 10:19:30;;;;;;;2.60;1.50;;;21.30;91.00;;;;;;6221387;23;20051;-88
2021/08/04 10:22:17;;;;;;;2.15;1.48;;;21.10;93.40;;;;;;6244000;23;20035;-89
2021/08/04 10:25:05;;;;;;;2.28;1.42;;;20.90;94.00;;;;;;6245625;23;20096;-90
2021/08/04 10:27:53;;;;;;;2.00;1.30;;;20.80;93.90;;;;;;6230214;23;20032;-90
2021/08/04 10:30:43;;;;;;;1.60;1.50;;;20.60;94.90;;;;;;6243800;23;20109;-89
2021/08/04 10:33:30;;;;;;;1.60;1.50;;;20.40;95.80;;;;;;6242770;23;20349;-89
2021/08/04 10:36:19;;;;;;;1.98;1.17;;;20.20;96.50;;;;;;6243314;23;20027;-88
2021/08/04 10:39:10;;;;;;;2.67;1.70;;;20.20;95.40;;;;;;6248604;22;20035;-88
2021/08/04 10:42:04;;;;;;;2.85;1.63;;;19.90;95.10;;;;;;6256597;23;20061;-89
2021/08/04 10:44:52;;;;;;;3.53;1.60;;;19.70;96.40;;;;;;6244814;23;20028;-87
2021/08/04 10:47:43;;;;;;;2.88;1.45;;;19.50;97.00;;;;;;6245138;23;20134;-86
2021/08/04 10:50:31;;;;;;;4.03;1.88;;;19.50;97.20;;;;;;6245031;23;20074;-88
2021/08/04 10:53:21;;;;;;;3.35;1.70;;;19.70;98.10;;;;;;6243837;23;20375;-87
2021/08/04 10:56:08;;;;;;;3.13;1.60;;;19.80;97.70;;;;;;6222340;23;20032;-87
2021/08/04 10:59:25;;;;;;;2.17;1.63;;;20.00;97.30;;;;;;6243543;23;20020;-87
2021/08/04 11:02:12;;;;;;;1.52;1.42;;;20.40;96.90;;;;;;6212668;23;20035;-89
2021/08/04 11:05:00;;;;;;;2.10;1.40;;;21.10;96.20;;;;;;6244914;23;20116;-91
2021/08/04 11:08:12;;;;;;;2.90;1.75;;;22.00;93.90;;;;;;6224602;23;20158;-91
2021/08/04 11:14:46;;;;;;;1.55;1.45;;;23.90;86.20;;;;;;6246263;23;20028;-89
2021/08/04 11:17:56;;;;;;;3.10;1.38;;;23.40;86.30;;;;;;6214288;23;20167;-91
2021/08/04 11:21:11;;;;;;;3.20;1.27;;;23.30;83.60;;;;;;6222048;23;20044;-89
2021/08/04 11:24:00;;;;;;;2.10;1.67;;;22.70;85.20;;;;;;6222578;23;20082;-86
2021/08/04 11:27:11;;;;;;;1.80;1.40;;;22.50;85.80;;;;;;6221191;23;20028;-86
2021/08/04 11:30:00;;;;;;;3.28;1.50;;;22.20;91.70;;;;;;6221009;23;20050;-90
2021/08/04 11:33:06;;;;;;;1.67;1.33;;;22.00;90.90;;;;;;6245077;23;20031;-88
2021/08/04 11:36:06;;;;;;;1.75;1.30;;;21.70;92.20;;;;;;6223532;23;20038;-89
2021/08/04 11:39:47;;;;;;;2.22;1.70;;;21.50;91.50;;;;;;6223804;22;20051;-91
2021/08/04 11:42:43;;;;;;;4.38;1.45;;;21.00;93.20;;;;;;6243278;23;20032;-88
2021/08/04 11:45:31;;;;;;;4.20;1.40;;;20.80;93.00;;;;;;6244244;23;20051;-88
2021/08/04 11:48:19;;;;;;;1.85;1.63;;;20.60;95.00;;;;;;6243659;23;20028;-88
2021/08/04 11:51:15;;;;;;;2.60;1.48;;;20.50;94.50;;;;;;6243491;23;20327;-90
2021/08/04 11:54:30;;;;;;;2.88;1.90;;;20.60;94.20;;;;;;6208911;23;20024;-86
2021/08/04 11:57:24;;;;;;;2.13;1.83;;;20.50;93.50;;;;;;6239097;23;20024;-86
2021/08/04 12:00:23;;;;;;;3.90;1.73;;;20.30;93.70;;;;;;6243769;23;20035;-89
2021/08/04 12:03:20;;;;;;;1.75;1.50;;;20.30;95.30;;;;;;6236037;23;20102;-87
2021/08/04 12:06:20;;;;;;;2.00;1.50;;;20.50;95.70;;;;;;6222498;23;20371;-88
2021/08/04 12:09:20;;;;;;;3.70;1.70;;;20.70;94.40;;;;;;6244006;23;20024;-86
2021/08/04 12:12:14;;;;;;;1.70;1.60;;;20.60;95.00;;;;;;6221162;23;20505;-87
2021/08/04 12:15:04;;;;;;;1.33;1.23;;;20.50;95.20;;;;;;6223150;23;20434;-88
2021/08/04 12:18:09;;;;;;;2.30;1.60;;;20.60;95.10;;;;;;6222959;23;20020;-90
2021/08/04 12:20:57;;;;;;;1.98;1.77;;;20.50;95.20;;;;;;6242336;23;20028;-89
2021/08/04 12:23:44;;;;;;;3.45;1.33;;;20.30;95.30;;;;;;6244290;23;20028;-91
2021/08/04 12:26:45;;;;;;;1.85;1.38;;;20.20;95.30;;;;;;6243975;23;20024;-90
2021/08/04 12:29:34;;;;;;;1.67;1.52;;;20.20;96.20;;;;;;6245745;23;20032;-90
2021/08/04 12:32:28;;;;;;;1.45;1.30;;;20.10;97.00;;;;;;6243523;23;20028;-91
2021/08/04 12:35:19;;;;;;;1.50;1.40;;;20.40;96.30;;;;;;6242691;23;20025;-89
2021/08/04 12:38:11;;;;;;;1.60;1.50;;;20.60;94.00;;;;;;6236797;23;20024;-90
2021/08/04 12:41:05;;;;;;;2.95;1.67;;;20.80;95.10;;;;;;6228584;23;20028;-90
2021/08/04 12:43:55;;;;;;;4.18;1.52;;;21.10;96.40;;;;;;6250078;23;20051;-91
2021/08/04 12:46:43;;;;;;;1.85;1.10;;;21.50;92.50;;;;;;6224023;23;20039;-90
2021/08/04 12:49:58;;;;;;;1.45;1.35;;;21.80;92.90;;;;;;6230459;23;20417;-91
2021/08/04 12:52:52;;;;;;;4.65;1.88;;;22.20;92.80;;;;;;6244165;23;20028;-90
2021/08/04 12:55:58;;;;;;;2.78;1.27;;;22.50;93.20;;;;;;6222822;23;20051;-90
2021/08/04 12:58:57;;;;;;;1.98;1.40;;;22.50;91.30;;;;;;6245242;23;20031;-91
2021/08/04 13:01:46;;;;;;;4.43;1.45;;;22.50;91.90;;;;;;6244972;23;20047;-91
2021/08/04 13:04:37;;;;;;;2.00;1.70;;;22.40;90.80;;;;;;6245948;23;20032;-89
2021/08/04 13:07:41;;;;;;;4.47;1.35;;;22.20;90.30;;;;;;6244696;23;20052;-90
2021/08/04 13:10:41;;;;;;;1.77;1.40;;;21.90;91.70;;;;;;6246504;23;20058;-90
2021/08/04 13:14:01;;;;;;;4.28;1.25;;;21.60;91.80;;;;;;6243964;23;20024;-90
2021/08/04 13:16:56;;;;;;;3.20;1.52;;;21.40;93.00;;;;;;6245808;23;20038;-88
2021/08/04 13:19:46;;;;;;;1.85;1.67;;;21.20;92.10;;;;;;6223226;23;20083;-90
2021/08/04 13:22:51;;;;;;;4.85;1.80;;;20.90;93.20;;;;;;6243046;23;20028;-88
2021/08/04 13:25:41;;;;;;;2.92;1.60;;;20.50;94.20;;;;;;6244279;23;20054;-90
2021/08/04 13:28:34;;;;;;;1.60;1.45;;;20.20;95.20;;;;;;6243518;23;20047;-88
2021/08/04 13:31:52;;;;;;;2.33;1.65;;;20.00;95.70;;;;;;6244231;23;20355;-90
2021/08/04 13:43:35;;;;;;;;;;;;;;;;;;;;;
2021/08/04 13:55:35;;;;;;;1.88;1.55;;;19.50;99.90;;;;;;6021588;23;20040;-91
2021/08/04 14:06:12;;;;;;;5.30;1.88;;;19.40;99.90;;;;;;6115624;23;20009;-91
2021/08/04 14:09:14;;;;;;;1.75;1.60;;;19.30;99.90;;;;;;6163171;23;20032;-90
2021/08/04 14:12:10;;;;;;;3.42;1.77;;;19.20;99.90;;;;;;6188351;23;20025;-89
2021/08/04 14:15:24;;;;;;;3.53;1.60;;;19.20;99.90;;;;;;6248207;23;20038;-90
2021/08/04 14:18:11;;;;;;;;;;;19.10;99.90;;;;;;6217357;23;20024;-92
2021/08/04 14:20:59;;;;;;;3.10;1.52;;;19.10;99.90;;;;;;6226031;23;20281;-90
2021/08/04 14:23:46;;;;;;;3.03;1.90;;;19.00;99.90;;;;;;6244897;22;20104;-90
2021/08/04 14:27:08;;;;;;;2.53;1.65;;;18.90;99.90;;;;;;6221891;23;20178;-91
2021/08/04 14:56:28;;;;;;;3.60;1.85;;;18.10;99.90;;;;;;6273431;22;20031;-91
2021/08/04 14:59:16;;;;;;;1.98;1.80;;;18.10;99.90;;;;;;6275027;22;20040;-90
2021/08/04 15:02:08;;;;;;;2.38;2.10;;;18.00;99.90;;;;;;6249813;22;20019;-90
2021/08/04 15:04:58;;;;;;;4.35;1.73;;;18.00;99.90;;;;;;6252940;22;20034;-91
2021/08/04 15:07:46;;;;;;;5.88;3.20;;;18.10;99.90;;;;;;6272215;22;20045;-89
2021/08/04 15:10:34;;;;;;;5.70;2.30;;;18.10;99.90;;;;;;6273648;22;20028;-90
2021/08/04 15:13:22;;;;;;;2.20;2.00;;;18.10;99.90;;;;;;6282994;22;20023;-89
2021/08/04 15:16:12;;;;;;;2.75;1.85;;;18.10;99.90;;;;;;6221545;22;20028;-90
2021/08/04 15:19:02;;;;;;;5.32;2.00;;;18.10;99.90;;;;;;6257830;22;20127;-89
2021/08/04 15:21:50;;;;;;;2.33;1.88;;;18.00;99.90;;;;;;6255897;22;20062;-90
2021/08/04 15:24:40;;;;;;;2.88;1.65;;;18.00;99.90;;;;;;6261606;22;20273;-89
2021/08/04 15:28:42;;;;;;;2.00;1.60;;;17.90;99.90;;;;;;6268502;22;20043;-88
2021/08/04 15:31:30;;;;;;;3.83;2.15;;;17.90;99.90;;;;;;6276503;22;20035;-90
2021/08/04 15:34:36;;;;;;;3.08;1.60;;;17.80;99.90;;;;;;6285147;22;20030;-90
2021/08/04 15:37:26;;;;;;;4.07;2.13;;;17.80;99.90;;;;;;6275691;22;20034;-90
2021/08/04 15:40:19;;;;;;;3.17;2.15;;;17.80;99.90;;;;;;6252665;22;20023;-90
2021/08/04 15:43:06;;;;;;;3.05;2.40;;;17.80;99.90;;;;;;6265830;22;20050;-90
2021/08/04 15:46:02;;;;;;;3.38;2.60;;;17.70;99.90;;;;;;6253352;22;20027;-90
2021/08/04 15:48:57;;;;;;;3.00;2.28;;;17.70;99.90;;;;;;6244207;22;20028;-89
2021/08/04 15:51:46;;;;;;;3.28;2.20;;;17.70;99.90;;;;;;6253720;22;20027;-88
2021/08/04 15:54:33;;;;;;;4.65;2.58;;;17.70;99.90;;;;;;6253358;22;20024;-90
2021/08/04 15:57:21;;;;;;;5.95;2.80;;;17.60;99.90;;;;;;6274982;22;20023;-90
2021/08/04 16:00:12;;;;;;;4.03;2.50;;;17.50;99.90;;;;;;6266270;22;20027;-90
2021/08/04 16:03:00;;;;;;;4.60;2.92;;;17.40;99.90;;;;;;6275628;22;20451;-89
2021/08/04 16:05:48;;;;;;;4.95;2.60;;;17.30;99.90;;;;;;6262953;22;20020;-90
2021/08/04 16:08:36;;;;;;;3.95;2.28;;;17.30;99.90;;;;;;6275233;22;20030;-89
2021/08/04 16:11:23;;;;;;;6.22;3.20;;;17.20;99.90;;;;;;6275618;22;20035;-89
2021/08/04 16:14:16;;;;;;;5.72;3.17;;;17.20;99.90;;;;;;6251820;22;20034;-89
2021/08/04 16:17:05;;;;;;;4.20;3.10;;;17.20;99.90;;;;;;6273621;22;20024;-90
2021/08/04 16:20:19;;;;;;;3.90;2.95;;;17.10;99.90;;;;;;6275284;22;20161;-91
2021/08/04 16:28:09;;;;;;;;;;;;;;;;;;;;;
2021/08/04 16:31:23;;;;;;;3.08;2.78;;;17.00;99.90;;;;;;6125563;23;20129;-93
2021/08/04 16:50:16;;;;;;;6.30;3.30;;;16.70;99.90;;;;;;6122319;23;20430;-92
2021/08/04 16:53:44;;;;;;;5.95;2.85;;;16.60;99.90;;;;;;6125850;23;20113;-90
2021/08/04 16:56:34;;;;;;;3.97;2.88;;;16.60;99.90;;;;;;6124546;23;20551;-91
2021/08/04 16:59:23;;;;;;;4.13;3.25;;;16.50;99.90;;;;;;6125533;23;20022;-91
2021/08/04 17:02:12;;;;;;;5.18;3.03;;;16.50;99.90;;;;;;6209182;23;20024;-91
2021/08/04 17:05:04;;;;;;;4.35;2.90;;;16.40;99.90;;;;;;6223873;23;20039;-90
2021/08/04 17:07:54;;;;;;;4.40;2.92;;;16.40;99.90;;;;;;6245253;23;20042;-89
2021/08/04 17:10:42;;;;;;;3.20;2.63;;;16.40;99.90;;;;;;6248350;22;20024;-90
2021/08/04 17:13:33;;;;;;;5.32;2.60;;;16.30;99.90;;;;;;6223611;23;20399;-92
2021/08/04 17:16:36;;;;;;;3.85;3.35;;;16.20;99.90;;;;;;6204895;23;20020;-91
2021/08/04 17:19:58;;;;;;;4.22;2.92;;;16.20;99.90;;;;;;6229943;23;20331;-91
2021/08/04 17:22:55;;;;;;;3.78;3.00;;;16.10;99.90;;;;;;6237882;23;20048;-91
2021/08/04 17:25:59;;;;;;;4.13;3.30;;;16.10;99.90;;;;;;6246047;23;20107;-90
2021/08/04 17:29:46;;;;;;;3.50;2.78;;;16.00;99.90;;;;;;6244206;23;20020;-90
2021/08/04 17:32:35;;;;;;;5.47;3.00;;;16.10;99.90;;;;;;6244814;23;20034;-90